Bugra Tomba — TCEJ — position and weather

sailwx.info

Track history (hours):
 
Tides and Currents Weather Stations Pressure Air Temp Water Temp Dewpoint Dewpoint Depression Visibility Wind Speed Wind Dir Waves Ship Positions

Bugra Tomba

Last reported at 2016-Jun-21 05:33 UTC. Time now 2016-Jul-23 23:11 UTC.
Position N 36°20' E 034°53'.
Warning: this ship's position is 32 days out of date.

Length 99 m; draft 3.6 m.

Type: Cargo ship. MMSI: 271000025.

Date/timePositionNaut miles runAvg speedWind from/ knotsBaromVisibWave heightAir tempDewpointWater temp
2016-Jun-21 05:33N 36°20' E 034°53'33 8.0
2016-Jun-21 01:25N 36°30' E 035°32'9 7.2
2016-Jun-21 00:09N 36°35' E 035°41'  
2016-Jun-15 14:19N 34°03' E 034°46'24 8.5
2016-Jun-15 11:31N 33°39' E 034°44'9 8.9
2016-Jun-15 10:33N 33°31' E 034°42'9 9.0
2016-Jun-15 09:33N 33°22' E 034°40'10 9.5
2016-Jun-15 08:32N 33°13' E 034°37'7 7.3
2016-Jun-15 07:33N 33°06' E 034°39'8 8.0
2016-Jun-15 06:33N 32°59' E 034°43'9 8.9
2016-Jun-15 05:33N 32°54' E 034°52'9 9.2
2016-Jun-15 04:33N 32°50' E 035°01'1 0.8
2016-Jun-15 03:33N 32°49' E 035°02'0 0.0
2016-Jun-15 02:33N 32°49' E 035°02'0 0.0
2016-Jun-15 01:33N 32°49' E 035°02'0 0.0
2016-Jun-15 00:33N 32°49' E 035°02'0 0.0
2016-Jun-14 23:33N 32°49' E 035°02'0 0.0
2016-Jun-14 22:33N 32°49' E 035°02'0 0.0
2016-Jun-14 21:33N 32°49' E 035°02'0 0.0
2016-Jun-14 20:34N 32°49' E 035°02'0 0.0
2016-Jun-14 19:33N 32°49' E 035°02'0 0.0
2016-Jun-14 18:33N 32°49' E 035°02'0 0.0
2016-Jun-14 17:34N 32°49' E 035°02'0 0.0
2016-Jun-14 16:33N 32°49' E 035°02'0 0.0
2016-Jun-14 15:33N 32°49' E 035°02'0 0.0
2016-Jun-14 14:33N 32°49' E 035°02'0 0.0
2016-Jun-14 13:33N 32°49' E 035°02'0 0.0
2016-Jun-14 12:33N 32°49' E 035°02'0 0.0
2016-Jun-14 11:33N 32°49' E 035°02'0 0.0
2016-Jun-14 10:33N 32°49' E 035°02'0 0.0
2016-Jun-14 09:33N 32°49' E 035°02'0 0.0
2016-Jun-14 08:33N 32°49' E 035°02'0 0.0
2016-Jun-14 07:33N 32°49' E 035°02'0 0.0
2016-Jun-14 05:33N 32°49' E 035°02'0 0.0
2016-Jun-14 04:33N 32°49' E 035°02'0 0.0
2016-Jun-14 03:33N 32°49' E 035°02'0 0.0
2016-Jun-13 19:12N 32°49' E 035°02'0 0.0
2016-Jun-13 18:33N 32°49' E 035°02'0 0.0
2016-Jun-13 17:33N 32°49' E 035°02'0 0.0
2016-Jun-13 16:34N 32°49' E 035°02'0 0.0
2016-Jun-13 15:34N 32°49' E 035°02'0 0.0
2016-Jun-13 14:33N 32°49' E 035°02'0 0.0
2016-Jun-13 13:33N 32°49' E 035°02'0 0.0
2016-Jun-13 12:33N 32°49' E 035°02'0 0.0
2016-Jun-13 11:33N 32°49' E 035°02'0 0.0
2016-Jun-13 10:30N 32°49' E 035°02'0 0.0
2016-Jun-13 09:33N 32°49' E 035°02'0 0.0
2016-Jun-13 08:33N 32°49' E 035°02'0 0.0
2016-Jun-13 07:33N 32°49' E 035°02'0 0.0
2016-Jun-13 06:33N 32°49' E 035°02'0 0.0
2016-Jun-13 05:33N 32°49' E 035°02'0 0.0
2016-Jun-13 04:33N 32°49' E 035°02'0 0.0
2016-Jun-13 03:33N 32°49' E 035°02'0 0.0
2016-Jun-13 02:33N 32°49' E 035°02'0 0.0
2016-Jun-13 01:34N 32°49' E 035°02'0 0.0
2016-Jun-13 00:33N 32°49' E 035°02'0 0.1
2016-Jun-12 23:33N 32°49' E 035°02'3 3.1
2016-Jun-12 22:33N 32°52' E 035°00'0 0.1
2016-Jun-12 21:31N 32°52' E 035°00'0 0.0
2016-Jun-12 20:31N 32°52' E 035°00'0 0.0
2016-Jun-12 19:31N 32°52' E 035°00'0 0.0
2016-Jun-12 18:31N 32°52' E 035°00'0 0.0
2016-Jun-12 17:31N 32°52' E 035°00'0 0.0
2016-Jun-12 16:31N 32°52' E 035°00'0 0.0
2016-Jun-12 15:31N 32°52' E 035°00'0 0.0
2016-Jun-12 14:31N 32°52' E 035°00'0 0.0
2016-Jun-12 13:31N 32°52' E 035°00'0 0.0
2016-Jun-12 12:31N 32°52' E 035°00'0 0.0
2016-Jun-12 11:31N 32°52' E 035°00'0 0.0
2016-Jun-12 10:31N 32°52' E 035°00'0 0.0
2016-Jun-12 09:31N 32°52' E 035°00'0 0.0
2016-Jun-12 08:31N 32°52' E 035°00'0 0.0
2016-Jun-12 07:31N 32°52' E 035°00'0 0.0
2016-Jun-12 06:31N 32°52' E 035°00'0 0.0
2016-Jun-12 04:31N 32°52' E 035°00'0 0.0
2016-Jun-12 03:31N 32°52' E 035°00'0 0.0
2016-Jun-12 02:31N 32°52' E 035°00'0 0.0
2016-Jun-12 01:31N 32°52' E 035°00'0 0.0
2016-Jun-12 00:31N 32°52' E 035°00'0 0.0
2016-Jun-11 23:31N 32°52' E 035°00'0 0.0
2016-Jun-11 22:31N 32°52' E 035°00'0 0.0
2016-Jun-11 21:31N 32°52' E 035°00'0 0.0
2016-Jun-11 20:31N 32°52' E 035°00'0 0.0
2016-Jun-11 19:31N 32°52' E 035°00'0 0.0
2016-Jun-11 18:58N 32°52' E 035°00'0 0.0
2016-Jun-11 18:31N 32°52' E 035°00'0 0.0
2016-Jun-11 17:31N 32°52' E 035°00'0 0.0
2016-Jun-11 15:28N 32°52' E 035°00'0 0.0
2016-Jun-11 14:31N 32°52' E 035°00'0 0.0
2016-Jun-11 13:31N 32°52' E 035°00'0 0.0
2016-Jun-11 12:31N 32°52' E 035°00'0 0.0
2016-Jun-11 11:31N 32°52' E 035°00'0 0.0
2016-Jun-11 10:31N 32°52' E 035°00'0 0.0
2016-Jun-11 09:31N 32°52' E 035°00'0 0.0
2016-Jun-11 08:31N 32°52' E 035°00'0 0.0
2016-Jun-11 07:31N 32°52' E 035°00'0 0.0
2016-Jun-11 06:31N 32°52' E 035°00'  
Track history (hours):
 
Tides and Currents Weather Stations Pressure Air Temp Water Temp Dewpoint Dewpoint Depression Visibility Wind Speed Wind Dir Waves Ship Positions

Bugra Tomba

Last reported at 2016-Jun-21 05:33 UTC. Time now 2016-Jul-23 23:11 UTC.
Position N 36°20' E 034°53'.
Warning: this ship's position is 32 days out of date.

Length 99 m; draft 3.6 m.

Type: Cargo ship. MMSI: 271000025.

Date/timePositionNaut miles runAvg speedWind from/ knotsBaromVisibWave heightAir tempDewpointWater temp
2016-Jun-21 05:33N 36°20' E 034°53'33 8.0
2016-Jun-21 01:25N 36°30' E 035°32'9 7.2
2016-Jun-21 00:09N 36°35' E 035°41'  
2016-Jun-15 14:19N 34°03' E 034°46'24 8.5
2016-Jun-15 11:31N 33°39' E 034°44'9 8.9
2016-Jun-15 10:33N 33°31' E 034°42'9 9.0
2016-Jun-15 09:33N 33°22' E 034°40'10 9.5
2016-Jun-15 08:32N 33°13' E 034°37'7 7.3
2016-Jun-15 07:33N 33°06' E 034°39'8 8.0
2016-Jun-15 06:33N 32°59' E 034°43'9 8.9
2016-Jun-15 05:33N 32°54' E 034°52'9 9.2
2016-Jun-15 04:33N 32°50' E 035°01'1 0.8
2016-Jun-15 03:33N 32°49' E 035°02'0 0.0
2016-Jun-15 02:33N 32°49' E 035°02'0 0.0
2016-Jun-15 01:33N 32°49' E 035°02'0 0.0
2016-Jun-15 00:33N 32°49' E 035°02'0 0.0
2016-Jun-14 23:33N 32°49' E 035°02'0 0.0
2016-Jun-14 22:33N 32°49' E 035°02'0 0.0
2016-Jun-14 21:33N 32°49' E 035°02'0 0.0
2016-Jun-14 20:34N 32°49' E 035°02'0 0.0
2016-Jun-14 19:33N 32°49' E 035°02'0 0.0
2016-Jun-14 18:33N 32°49' E 035°02'0 0.0
2016-Jun-14 17:34N 32°49' E 035°02'0 0.0
2016-Jun-14 16:33N 32°49' E 035°02'0 0.0
2016-Jun-14 15:33N 32°49' E 035°02'0 0.0
2016-Jun-14 14:33N 32°49' E 035°02'0 0.0
2016-Jun-14 13:33N 32°49' E 035°02'0 0.0
2016-Jun-14 12:33N 32°49' E 035°02'0 0.0
2016-Jun-14 11:33N 32°49' E 035°02'0 0.0
2016-Jun-14 10:33N 32°49' E 035°02'0 0.0
2016-Jun-14 09:33N 32°49' E 035°02'0 0.0
2016-Jun-14 08:33N 32°49' E 035°02'0 0.0
2016-Jun-14 07:33N 32°49' E 035°02'0 0.0
2016-Jun-14 05:33N 32°49' E 035°02'0 0.0
2016-Jun-14 04:33N 32°49' E 035°02'0 0.0
2016-Jun-14 03:33N 32°49' E 035°02'0 0.0
2016-Jun-13 19:12N 32°49' E 035°02'0 0.0
2016-Jun-13 18:33N 32°49' E 035°02'0 0.0
2016-Jun-13 17:33N 32°49' E 035°02'0 0.0
2016-Jun-13 16:34N 32°49' E 035°02'0 0.0
2016-Jun-13 15:34N 32°49' E 035°02'0 0.0
2016-Jun-13 14:33N 32°49' E 035°02'0 0.0
2016-Jun-13 13:33N 32°49' E 035°02'0 0.0
2016-Jun-13 12:33N 32°49' E 035°02'0 0.0
2016-Jun-13 11:33N 32°49' E 035°02'0 0.0
2016-Jun-13 10:30N 32°49' E 035°02'0 0.0
2016-Jun-13 09:33N 32°49' E 035°02'0 0.0
2016-Jun-13 08:33N 32°49' E 035°02'0 0.0
2016-Jun-13 07:33N 32°49' E 035°02'0 0.0
2016-Jun-13 06:33N 32°49' E 035°02'0 0.0
2016-Jun-13 05:33N 32°49' E 035°02'0 0.0
2016-Jun-13 04:33N 32°49' E 035°02'0 0.0
2016-Jun-13 03:33N 32°49' E 035°02'0 0.0
2016-Jun-13 02:33N 32°49' E 035°02'0 0.0
2016-Jun-13 01:34N 32°49' E 035°02'0 0.0
2016-Jun-13 00:33N 32°49' E 035°02'0 0.1
2016-Jun-12 23:33N 32°49' E 035°02'3 3.1
2016-Jun-12 22:33N 32°52' E 035°00'0 0.1
2016-Jun-12 21:31N 32°52' E 035°00'0 0.0
2016-Jun-12 20:31N 32°52' E 035°00'0 0.0
2016-Jun-12 19:31N 32°52' E 035°00'0 0.0
2016-Jun-12 18:31N 32°52' E 035°00'0 0.0
2016-Jun-12 17:31N 32°52' E 035°00'0 0.0
2016-Jun-12 16:31N 32°52' E 035°00'0 0.0
2016-Jun-12 15:31N 32°52' E 035°00'0 0.0
2016-Jun-12 14:31N 32°52' E 035°00'0 0.0
2016-Jun-12 13:31N 32°52' E 035°00'0 0.0
2016-Jun-12 12:31N 32°52' E 035°00'0 0.0
2016-Jun-12 11:31N 32°52' E 035°00'0 0.0
2016-Jun-12 10:31N 32°52' E 035°00'0 0.0
2016-Jun-12 09:31N 32°52' E 035°00'0 0.0
2016-Jun-12 08:31N 32°52' E 035°00'0 0.0
2016-Jun-12 07:31N 32°52' E 035°00'0 0.0
2016-Jun-12 06:31N 32°52' E 035°00'0 0.0
2016-Jun-12 04:31N 32°52' E 035°00'0 0.0
2016-Jun-12 03:31N 32°52' E 035°00'0 0.0
2016-Jun-12 02:31N 32°52' E 035°00'0 0.0
2016-Jun-12 01:31N 32°52' E 035°00'0 0.0
2016-Jun-12 00:31N 32°52' E 035°00'0 0.0
2016-Jun-11 23:31N 32°52' E 035°00'0 0.0
2016-Jun-11 22:31N 32°52' E 035°00'0 0.0
2016-Jun-11 21:31N 32°52' E 035°00'0 0.0
2016-Jun-11 20:31N 32°52' E 035°00'0 0.0
2016-Jun-11 19:31N 32°52' E 035°00'0 0.0
2016-Jun-11 18:58N 32°52' E 035°00'0 0.0
2016-Jun-11 18:31N 32°52' E 035°00'0 0.0
2016-Jun-11 17:31N 32°52' E 035°00'0 0.0
2016-Jun-11 15:28N 32°52' E 035°00'0 0.0
2016-Jun-11 14:31N 32°52' E 035°00'0 0.0
2016-Jun-11 13:31N 32°52' E 035°00'0 0.0
2016-Jun-11 12:31N 32°52' E 035°00'0 0.0
2016-Jun-11 11:31N 32°52' E 035°00'0 0.0
2016-Jun-11 10:31N 32°52' E 035°00'0 0.0
2016-Jun-11 09:31N 32°52' E 035°00'0 0.0
2016-Jun-11 08:31N 32°52' E 035°00'0 0.0
2016-Jun-11 07:31N 32°52' E 035°00'0 0.0
2016-Jun-11 06:31N 32°52' E 035°00'  

Dump ship's entire track history